Back to Top

Language: 

My Weather Underground Personal Weather Station Historical Data with Graphs...

Delerius Weather Station Historical Data
Daily Summary for November 15, 2017 Units:  English    Metric   Both
« Previous Day
Next Day »
Daily Weekly Monthly Yearly Custom
  High: Low: Average:
Temperature: 52.2 °F 47.3 °F 49.8 °F
Dew Point: 49.7 °F 41.8 °F 46.3 °F
Humidity: 95 % 72 % 88 %
Wind Speed: 8.0 mph 0.0 mph 1.5 mph
Wind Gust: 12.0 mph - -
Wind:- - South
Pressure: 30.26 in 30.12 in -
Precipitation: 0.00 in    
Historical Graphs
 
 
Tabular Data for November 15, 2017
Time Temperature Dew Point Pressure Wind Wind Speed Wind Gust Humidity Rainfall Rate (Hourly) solar Conditions
00:03 52.2 °F 49.6 °F 30.16 in West 5.0 mph 10.0 mph 91 % 0.00 in 0 W/m2
00:08 52.2 °F 49.6 °F 30.16 in West 5.0 mph 8.0 mph 91 % 0.00 in 0 W/m2
00:13 52.2 °F 49.6 °F 30.16 in West 7.0 mph 10.0 mph 91 % 0.00 in 0 W/m2
00:18 52.2 °F 49.6 °F 30.16 in West 4.0 mph 8.0 mph 91 % 0.00 in 0 W/m2
00:23 52.2 °F 49.6 °F 30.16 in West 3.0 mph 6.0 mph 91 % 0.00 in 0 W/m2
00:28 52.0 °F 49.4 °F 30.15 in West 7.0 mph 11.0 mph 91 % 0.00 in 0 W/m2
00:33 52.0 °F 49.4 °F 30.15 in WSW 4.0 mph 7.0 mph 91 % 0.00 in 0 W/m2
00:38 52.0 °F 49.4 °F 30.16 in WSW 4.0 mph 8.0 mph 91 % 0.00 in 0 W/m2
00:43 51.6 °F 48.8 °F 30.16 in WSW 2.0 mph 7.0 mph 90 % 0.00 in 0 W/m2
00:48 51.6 °F 49.1 °F 30.15 in SW 4.0 mph 8.0 mph 91 % 0.00 in 0 W/m2
00:53 51.4 °F 48.9 °F 30.15 in WSW 1.0 mph 5.0 mph 91 % 0.00 in 0 W/m2
00:58 51.3 °F 48.7 °F 30.15 in Calm   2.0 mph 91 % 0.00 in 0 W/m2
01:03 51.3 °F 48.7 °F 30.16 in Calm     91 % 0.00 in 0 W/m2
01:08 51.1 °F 48.5 °F 30.16 in West 2.0 mph 6.0 mph 91 % 0.00 in 0 W/m2
01:13 50.9 °F 48.4 °F 30.16 in WNW 2.0 mph 5.0 mph 91 % 0.00 in 0 W/m2
01:18 50.9 °F 48.7 °F 30.16 in WNW 3.0 mph 6.0 mph 92 % 0.00 in 0 W/m2
01:23 50.7 °F 48.5 °F 30.16 in WNW 5.0 mph 7.0 mph 92 % 0.00 in 0 W/m2
01:28 50.9 °F 48.7 °F 30.16 in West 4.0 mph 6.0 mph 92 % 0.00 in 0 W/m2
01:33 50.9 °F 48.7 °F 30.16 in West 3.0 mph 6.0 mph 92 % 0.00 in 0 W/m2
01:38 51.1 °F 48.8 °F 30.16 in West 2.0 mph 5.0 mph 92 % 0.00 in 0 W/m2
01:43 51.1 °F 48.8 °F 30.16 in WSW 1.0 mph 5.0 mph 92 % 0.00 in 0 W/m2
01:48 51.1 °F 48.8 °F 30.16 in West 3.0 mph 7.0 mph 92 % 0.00 in 0 W/m2
01:53 51.1 °F 48.8 °F 30.16 in West 5.0 mph 8.0 mph 92 % 0.00 in 0 W/m2
01:58 51.3 °F 49.3 °F 30.16 in West 7.0 mph 11.0 mph 93 % 0.00 in 0 W/m2
02:03 51.4 °F 49.5 °F 30.16 in West 8.0 mph 12.0 mph 93 % 0.00 in 0 W/m2
02:08 51.6 °F 49.4 °F 30.17 in West 6.0 mph 9.0 mph 92 % 0.00 in 0 W/m2
02:12 51.8 °F 49.5 °F 30.17 in West 6.0 mph 10.0 mph 92 % 0.00 in 0 W/m2
02:17 51.8 °F 49.5 °F 30.17 in WNW 4.0 mph 8.0 mph 92 % 0.00 in 0 W/m2
02:22 51.8 °F 49.5 °F 30.17 in WNW 7.0 mph 10.0 mph 92 % 0.00 in 0 W/m2
02:27 51.6 °F 49.4 °F 30.17 in WNW 3.0 mph 7.0 mph 92 % 0.00 in 0 W/m2
02:32 51.6 °F 49.4 °F 30.17 in WNW 5.0 mph 8.0 mph 92 % 0.00 in 0 W/m2
02:37 51.6 °F 49.4 °F 30.17 in WNW 5.0 mph 7.0 mph 92 % 0.00 in 0 W/m2
02:42 51.6 °F 49.4 °F 30.17 in WNW 6.0 mph 10.0 mph 92 % 0.00 in 0 W/m2
02:47 51.6 °F 49.4 °F 30.17 in WNW 6.0 mph 9.0 mph 92 % 0.00 in 0 W/m2
02:52 51.6 °F 49.4 °F 30.17 in WNW 5.0 mph 8.0 mph 92 % 0.00 in 0 W/m2
02:57 51.6 °F 49.7 °F 30.17 in WNW 4.0 mph 6.0 mph 93 % 0.00 in 0 W/m2
03:02 51.4 °F 49.5 °F 30.18 in WNW 3.0 mph 7.0 mph 93 % 0.00 in 0 W/m2
03:07 51.4 °F 49.5 °F 30.18 in NW 4.0 mph 8.0 mph 93 % 0.00 in 0 W/m2
03:12 51.4 °F 49.2 °F 30.18 in NNE 8.0 mph 12.0 mph 92 % 0.00 in 0 W/m2
03:17 50.9 °F 48.7 °F 30.19 in NNE 4.0 mph 9.0 mph 92 % 0.00 in 0 W/m2
03:22 50.4 °F 48.1 °F 30.19 in NNE 7.0 mph 11.0 mph 92 % 0.00 in 0 W/m2
03:25 50.0 °F 47.8 °F 30.18 in NNE 7.0 mph 10.0 mph 92 % 0.00 in 0 W/m2
03:30 49.8 °F 47.9 °F 30.19 in North 6.0 mph 10.0 mph 93 % 0.00 in 0 W/m2
03:32 49.8 °F 47.9 °F 30.19 in North 7.0 mph 10.0 mph 93 % 0.00 in 0 W/m2
03:36 49.5 °F 47.5 °F 30.18 in NNE 7.0 mph 10.0 mph 93 % 0.00 in 0 W/m2
03:42 49.3 °F 47.3 °F 30.18 in NNE 4.0 mph 8.0 mph 93 % 0.00 in 0 W/m2
03:47 49.3 °F 47.3 °F 30.18 in NNE 5.0 mph 7.0 mph 93 % 0.00 in 0 W/m2
03:52 49.1 °F 47.4 °F 30.18 in North 5.0 mph 8.0 mph 94 % 0.00 in 0 W/m2
03:57 48.9 °F 47.3 °F 30.18 in North 6.0 mph 10.0 mph 94 % 0.00 in 0 W/m2
04:02 48.9 °F 47.3 °F 30.19 in NNE 4.0 mph 7.0 mph 94 % 0.00 in 0 W/m2
04:07 48.9 °F 47.3 °F 30.18 in NNE 5.0 mph 8.0 mph 94 % 0.00 in 0 W/m2
04:12 48.9 °F 47.3 °F 30.19 in North 6.0 mph 8.0 mph 94 % 0.00 in 0 W/m2
04:17 48.9 °F 47.3 °F 30.19 in NNE 3.0 mph 6.0 mph 94 % 0.00 in 0 W/m2
04:22 48.7 °F 47.1 °F 30.19 in North 4.0 mph 8.0 mph 94 % 0.00 in 0 W/m2
04:27 48.7 °F 47.1 °F 30.19 in NNE 7.0 mph 10.0 mph 94 % 0.00 in 0 W/m2
04:32 48.7 °F 47.1 °F 30.19 in NE 3.0 mph 8.0 mph 94 % 0.00 in 0 W/m2
04:37 48.7 °F 47.1 °F 30.19 in NNE 4.0 mph 6.0 mph 94 % 0.00 in 0 W/m2
04:42 48.7 °F 47.1 °F 30.19 in NNE 1.0 mph 4.0 mph 94 % 0.00 in 0 W/m2
04:47 48.7 °F 47.1 °F 30.20 in North 2.0 mph 8.0 mph 94 % 0.00 in 0 W/m2
04:52 48.7 °F 46.8 °F 30.20 in NNW 4.0 mph 7.0 mph 93 % 0.00 in 0 W/m2
04:57 48.7 °F 46.8 °F 30.20 in Calm   3.0 mph 93 % 0.00 in 0 W/m2
05:02 48.7 °F 46.8 °F 30.20 in NNW 2.0 mph 7.0 mph 93 % 0.00 in 0 W/m2
05:07 48.6 °F 46.6 °F 30.20 in NNW 2.0 mph 5.0 mph 93 % 0.00 in 0 W/m2
05:12 48.6 °F 46.9 °F 30.21 in NW 2.0 mph 5.0 mph 94 % 0.00 in 0 W/m2
05:17 48.6 °F 46.9 °F 30.21 in NNW 2.0 mph 7.0 mph 94 % 0.00 in 0 W/m2
05:22 48.6 °F 46.6 °F 30.21 in North 2.0 mph 6.0 mph 93 % 0.00 in 0 W/m2
05:27 48.4 °F 46.4 °F 30.21 in North 1.0 mph 4.0 mph 93 % 0.00 in 0 W/m2
05:32 48.4 °F 46.4 °F 30.21 in Calm   1.0 mph 93 % 0.00 in 0 W/m2
05:37 48.4 °F 46.4 °F 30.21 in Calm     93 % 0.00 in 0 W/m2
05:42 48.4 °F 46.4 °F 30.21 in Calm     93 % 0.00 in 0 W/m2
05:47 48.4 °F 46.4 °F 30.21 in Calm   1.0 mph 93 % 0.00 in 0 W/m2
05:52 48.4 °F 46.4 °F 30.21 in Calm     93 % 0.00 in 0 W/m2
05:57 48.2 °F 46.3 °F 30.21 in Calm   1.0 mph 93 % 0.00 in 0 W/m2
06:02 48.2 °F 46.3 °F 30.22 in North 2.0 mph 4.0 mph 93 % 0.00 in 0 W/m2
06:07 48.2 °F 46.6 °F 30.22 in WNW 3.0 mph 5.0 mph 94 % 0.00 in 0 W/m2
06:12 48.2 °F 46.6 °F 30.22 in Calm     94 % 0.00 in 0 W/m2
06:17 48.2 °F 46.6 °F 30.21 in Calm     94 % 0.00 in 0 W/m2
06:22 48.2 °F 46.6 °F 30.21 in Calm     94 % 0.00 in 0 W/m2
06:27 48.0 °F 46.4 °F 30.22 in Calm     94 % 0.00 in 0 W/m2
06:32 48.0 °F 46.1 °F 30.22 in Calm     93 % 0.00 in 0 W/m2
06:37 47.8 °F 45.9 °F 30.22 in Calm     93 % 0.00 in 0 W/m2
06:42 47.7 °F 45.7 °F 30.22 in Calm   2.0 mph 93 % 0.00 in 0 W/m2
06:47 47.7 °F 45.7 °F 30.22 in Calm     93 % 0.00 in 0 W/m2
06:52 47.5 °F 45.6 °F 30.22 in Calm     93 % 0.00 in 0 W/m2
06:57 47.5 °F 45.8 °F 30.22 in Calm     94 % 0.00 in 0 W/m2
07:02 47.5 °F 45.8 °F 30.22 in Calm   1.0 mph 94 % 0.00 in 0 W/m2
07:08 47.5 °F 45.8 °F 30.23 in Calm   2.0 mph 94 % 0.00 in 0 W/m2
07:13 47.5 °F 45.8 °F 30.23 in WNW 1.0 mph 5.0 mph 94 % 0.00 in 0 W/m2
07:18 47.5 °F 45.8 °F 30.22 in Calm   2.0 mph 94 % 0.00 in 0 W/m2
07:23 47.5 °F 45.8 °F 30.23 in Calm   1.0 mph 94 % 0.00 in 0 W/m2
07:28 47.5 °F 45.8 °F 30.23 in Calm     94 % 0.00 in 0 W/m2
07:33 47.5 °F 45.8 °F 30.23 in Calm     94 % 0.00 in 0 W/m2
07:38 47.5 °F 45.8 °F 30.23 in Calm     94 % 0.00 in 5 W/m2
07:43 47.5 °F 45.8 °F 30.23 in Calm     94 % 0.00 in 7 W/m2
07:48 47.3 °F 45.7 °F 30.23 in Calm     94 % 0.00 in 9 W/m2
07:53 47.3 °F 45.7 °F 30.23 in Calm     94 % 0.00 in 12 W/m2
07:58 47.3 °F 45.7 °F 30.23 in Calm     94 % 0.00 in 12 W/m2
08:03 47.3 °F 45.7 °F 30.24 in Calm     94 % 0.00 in 12 W/m2
08:08 47.3 °F 45.7 °F 30.24 in Calm     94 % 0.00 in 14 W/m2
08:13 47.3 °F 45.9 °F 30.24 in Calm     95 % 0.00 in 14 W/m2
08:18 47.3 °F 45.9 °F 30.24 in Calm     95 % 0.00 in 19 W/m2
08:23 47.3 °F 45.9 °F 30.24 in Calm     95 % 0.00 in 21 W/m2
08:28 47.5 °F 46.1 °F 30.24 in Calm     95 % 0.00 in 23 W/m2
08:33 47.5 °F 46.1 °F 30.24 in Calm     95 % 0.00 in 28 W/m2
08:38 47.5 °F 46.1 °F 30.24 in Calm   2.0 mph 95 % 0.00 in 28 W/m2
08:43 47.7 °F 46.3 °F 30.25 in WNW 1.0 mph 3.0 mph 95 % 0.00 in 32 W/m2
08:48 47.7 °F 46.3 °F 30.24 in Calm     95 % 0.00 in 33 W/m2
08:53 47.7 °F 46.3 °F 30.24 in Calm     95 % 0.00 in 35 W/m2
08:58 47.7 °F 46.3 °F 30.24 in Calm   2.0 mph 95 % 0.00 in 35 W/m2
09:03 47.7 °F 46.3 °F 30.24 in Calm     95 % 0.00 in 33 W/m2
09:08 47.7 °F 46.3 °F 30.25 in Calm     95 % 0.00 in 40 W/m2
09:13 47.8 °F 46.5 °F 30.24 in Calm     95 % 0.00 in 47 W/m2
09:18 47.8 °F 46.5 °F 30.24 in Calm   3.0 mph 95 % 0.00 in 60 W/m2
09:23 47.7 °F 46.0 °F 30.24 in Calm   1.0 mph 94 % 0.00 in 63 W/m2
09:28 47.7 °F 46.0 °F 30.24 in Calm   1.0 mph 94 % 0.00 in 62 W/m2
09:33 47.5 °F 45.3 °F 30.24 in Calm   2.0 mph 92 % 0.00 in 70 W/m2
09:38 47.7 °F 45.2 °F 30.24 in Calm   1.0 mph 91 % 0.00 in 77 W/m2
09:43 47.7 °F 44.6 °F 30.24 in Calm   1.0 mph 89 % 0.00 in 84 W/m2
09:48 47.8 °F 44.2 °F 30.24 in ENE 2.0 mph 5.0 mph 87 % 0.00 in 86 W/m2
09:53 48.2 °F 44.2 °F 30.24 in East 1.0 mph 4.0 mph 86 % 0.00 in 95 W/m2
09:58 48.4 °F 44.1 °F 30.25 in Calm   1.0 mph 85 % 0.00 in 97 W/m2
10:03 48.6 °F 43.9 °F 30.25 in East 1.0 mph 2.0 mph 84 % 0.00 in 95 W/m2
10:08 48.9 °F 44.0 °F 30.25 in Calm   1.0 mph 83 % 0.00 in 93 W/m2
10:14 49.1 °F 44.2 °F 30.25 in Calm     83 % 0.00 in 98 W/m2
10:19 49.3 °F 43.7 °F 30.25 in Calm   1.0 mph 81 % 0.00 in 86 W/m2
10:24 49.5 °F 43.9 °F 30.25 in Calm   1.0 mph 81 % 0.00 in 88 W/m2
10:29 49.5 °F 43.9 °F 30.25 in Calm     81 % 0.00 in 84 W/m2
10:34 49.6 °F 43.4 °F 30.25 in Calm   2.0 mph 79 % 0.00 in 95 W/m2
10:39 49.6 °F 42.7 °F 30.25 in Calm     77 % 0.00 in 105 W/m2
10:44 49.6 °F 42.7 °F 30.25 in Calm     77 % 0.00 in 114 W/m2
10:49 49.8 °F 42.6 °F 30.25 in Calm     76 % 0.00 in 98 W/m2
10:54 50.0 °F 43.1 °F 30.25 in Calm     77 % 0.00 in 104 W/m2
10:59 50.2 °F 43.2 °F 30.25 in Calm     77 % 0.00 in 81 W/m2
11:04 50.2 °F 42.9 °F 30.25 in Calm     76 % 0.00 in 100 W/m2
11:09 50.2 °F 42.2 °F 30.25 in Calm     74 % 0.00 in 93 W/m2
11:14 50.4 °F 42.4 °F 30.26 in Calm     74 % 0.00 in 93 W/m2
11:19 50.4 °F 42.4 °F 30.25 in Calm     74 % 0.00 in 98 W/m2
11:24 50.4 °F 42.0 °F 30.25 in Calm     73 % 0.00 in 90 W/m2
11:29 50.4 °F 42.4 °F 30.25 in Calm   1.0 mph 74 % 0.00 in 93 W/m2
11:34 50.5 °F 42.6 °F 30.25 in Calm     74 % 0.00 in 93 W/m2
11:39 50.5 °F 42.6 °F 30.24 in Calm   2.0 mph 74 % 0.00 in 98 W/m2
11:44 50.5 °F 42.6 °F 30.25 in Calm   2.0 mph 74 % 0.00 in 95 W/m2
11:49 50.5 °F 42.6 °F 30.25 in Calm     74 % 0.00 in 91 W/m2
11:54 50.5 °F 42.2 °F 30.25 in Calm     73 % 0.00 in 98 W/m2
11:59 50.5 °F 41.8 °F 30.24 in Calm     72 % 0.00 in 105 W/m2
12:04 50.5 °F 41.8 °F 30.25 in Calm     72 % 0.00 in 100 W/m2
12:09 50.7 °F 42.4 °F 30.24 in Calm     73 % 0.00 in 95 W/m2
12:14 50.9 °F 42.9 °F 30.25 in Calm     74 % 0.00 in 84 W/m2
12:19 50.9 °F 42.9 °F 30.24 in Calm     74 % 0.00 in 93 W/m2
12:24 51.1 °F 43.4 °F 30.24 in Calm     75 % 0.00 in 93 W/m2
12:29 51.1 °F 43.4 °F 30.24 in Calm     75 % 0.00 in 104 W/m2
12:34 51.1 °F 43.4 °F 30.24 in East 1.0 mph 4.0 mph 75 % 0.00 in 104 W/m2
12:39 51.1 °F 43.4 °F 30.23 in Calm   1.0 mph 75 % 0.00 in 105 W/m2
12:44 51.1 °F 43.8 °F 30.23 in East 1.0 mph 2.0 mph 76 % 0.00 in 111 W/m2
12:49 51.1 °F 43.4 °F 30.23 in Calm   2.0 mph 75 % 0.00 in 105 W/m2
12:54 51.1 °F 43.8 °F 30.24 in Calm   2.0 mph 76 % 0.00 in 98 W/m2
12:59 51.1 °F 43.1 °F 30.23 in East 1.0 mph 2.0 mph 74 % 0.00 in 95 W/m2
13:04 51.1 °F 42.7 °F 30.23 in ENE 1.0 mph 5.0 mph 73 % 0.00 in 95 W/m2
13:09 50.9 °F 42.9 °F 30.23 in East 1.0 mph 4.0 mph 74 % 0.00 in 97 W/m2
13:14 50.9 °F 42.9 °F 30.23 in ESE 3.0 mph 5.0 mph 74 % 0.00 in 98 W/m2
13:19 50.9 °F 42.9 °F 30.23 in ESE 2.0 mph 5.0 mph 74 % 0.00 in 100 W/m2
13:24 51.1 °F 43.1 °F 30.22 in SE 1.0 mph 3.0 mph 74 % 0.00 in 104 W/m2
13:29 51.1 °F 43.1 °F 30.22 in Calm   2.0 mph 74 % 0.00 in 114 W/m2
13:34 51.1 °F 43.1 °F 30.23 in Calm   2.0 mph 74 % 0.00 in 97 W/m2
13:39 51.1 °F 43.1 °F 30.22 in East 1.0 mph 4.0 mph 74 % 0.00 in 100 W/m2
13:44 51.1 °F 43.4 °F 30.22 in Calm   2.0 mph 75 % 0.00 in 98 W/m2
13:49 51.3 °F 43.6 °F 30.23 in Calm     75 % 0.00 in 97 W/m2
13:54 51.3 °F 43.6 °F 30.23 in Calm     75 % 0.00 in 88 W/m2
13:59 51.4 °F 44.1 °F 30.22 in Calm     76 % 0.00 in 86 W/m2
14:04 51.4 °F 44.1 °F 30.22 in Calm     76 % 0.00 in 81 W/m2
14:09 51.4 °F 43.8 °F 30.22 in East 1.0 mph 3.0 mph 75 % 0.00 in 88 W/m2
14:14 51.4 °F 44.1 °F 30.22 in East 1.0 mph 3.0 mph 76 % 0.00 in 83 W/m2
14:19 51.4 °F 44.1 °F 30.22 in ESE 1.0 mph 3.0 mph 76 % 0.00 in 77 W/m2
14:24 51.4 °F 44.5 °F 30.21 in Calm   2.0 mph 77 % 0.00 in 79 W/m2
14:29 51.4 °F 44.5 °F 30.22 in Calm   1.0 mph 77 % 0.00 in 91 W/m2
14:34 51.4 °F 44.5 °F 30.21 in ESE 1.0 mph 2.0 mph 77 % 0.00 in 86 W/m2
14:39 51.4 °F 44.5 °F 30.21 in Calm   2.0 mph 77 % 0.00 in 97 W/m2
14:44 51.6 °F 44.6 °F 30.21 in ESE 1.0 mph 3.0 mph 77 % 0.00 in 69 W/m2
14:49 51.6 °F 44.6 °F 30.21 in Calm   2.0 mph 77 % 0.00 in 60 W/m2
14:54 51.6 °F 45.0 °F 30.21 in Calm   2.0 mph 78 % 0.00 in 53 W/m2
15:00 51.6 °F 45.0 °F 30.21 in Calm     78 % 0.00 in 63 W/m2
15:05 51.6 °F 45.3 °F 30.21 in ESE 2.0 mph 4.0 mph 79 % 0.00 in 69 W/m2
15:10 51.4 °F 45.1 °F 30.21 in East 1.0 mph 4.0 mph 79 % 0.00 in 56 W/m2
15:15 51.3 °F 45.0 °F 30.21 in East 1.0 mph 4.0 mph 79 % 0.00 in 46 W/m2
15:20 51.3 °F 45.0 °F 30.21 in Calm   2.0 mph 79 % 0.00 in 40 W/m2
15:25 51.1 °F 45.1 °F 30.21 in ESE 1.0 mph 2.0 mph 80 % 0.00 in 33 W/m2
15:30 51.1 °F 45.1 °F 30.21 in Calm   1.0 mph 80 % 0.00 in 21 W/m2
15:35 51.1 °F 45.1 °F 30.21 in Calm   2.0 mph 80 % 0.00 in 11 W/m2
15:40 50.9 °F 45.3 °F 30.21 in Calm   2.0 mph 81 % 0.00 in 7 W/m2
15:45 50.9 °F 45.3 °F 30.21 in SE 1.0 mph 4.0 mph 81 % 0.00 in 5 W/m2
15:50 50.7 °F 45.1 °F 30.21 in SE 1.0 mph 4.0 mph 81 % 0.00 in 5 W/m2
15:55 50.7 °F 45.4 °F 30.21 in SE 1.0 mph 4.0 mph 82 % 0.00 in 0 W/m2
16:00 50.5 °F 45.2 °F 30.21 in SE 2.0 mph 5.0 mph 82 % 0.00 in 0 W/m2
16:05 50.5 °F 45.2 °F 30.20 in SE 1.0 mph 4.0 mph 82 % 0.00 in 0 W/m2
16:10 50.4 °F 45.4 °F 30.20 in SE 1.0 mph 3.0 mph 83 % 0.00 in 0 W/m2
16:15 50.4 °F 45.4 °F 30.19 in ESE 2.0 mph 5.0 mph 83 % 0.00 in 0 W/m2
16:20 50.2 °F 45.5 °F 30.20 in ESE 1.0 mph 2.0 mph 84 % 0.00 in 0 W/m2
16:25 50.2 °F 45.5 °F 30.19 in ESE 1.0 mph 2.0 mph 84 % 0.00 in 0 W/m2
16:30 50.2 °F 45.5 °F 30.19 in Calm   2.0 mph 84 % 0.00 in 0 W/m2
16:35 50.2 °F 45.8 °F 30.19 in ESE 2.0 mph 5.0 mph 85 % 0.00 in 0 W/m2
16:40 50.2 °F 45.8 °F 30.19 in ESE 2.0 mph 4.0 mph 85 % 0.00 in 0 W/m2
16:45 50.2 °F 46.2 °F 30.19 in ESE 1.0 mph 2.0 mph 86 % 0.00 in 0 W/m2
16:50 50.2 °F 46.2 °F 30.19 in Calm   1.0 mph 86 % 0.00 in 0 W/m2
16:55 50.2 °F 46.2 °F 30.19 in Calm   1.0 mph 86 % 0.00 in 0 W/m2
17:00 50.2 °F 46.2 °F 30.19 in SE 3.0 mph 5.0 mph 86 % 0.00 in 0 W/m2
17:05 50.4 °F 46.3 °F 30.18 in SSE 1.0 mph 5.0 mph 86 % 0.00 in 0 W/m2
17:10 50.4 °F 46.3 °F 30.18 in SSE 3.0 mph 6.0 mph 86 % 0.00 in 0 W/m2
17:15 50.4 °F 46.6 °F 30.18 in Calm   2.0 mph 87 % 0.00 in 0 W/m2
17:20 50.4 °F 46.6 °F 30.18 in Calm     87 % 0.00 in 0 W/m2
17:25 50.4 °F 46.6 °F 30.18 in Calm   2.0 mph 87 % 0.00 in 0 W/m2
17:30 50.4 °F 46.6 °F 30.18 in Calm   1.0 mph 87 % 0.00 in 0 W/m2
17:35 50.4 °F 46.6 °F 30.18 in Calm   1.0 mph 87 % 0.00 in 0 W/m2
17:40 50.4 °F 46.9 °F 30.18 in Calm     88 % 0.00 in 0 W/m2
17:45 50.4 °F 46.9 °F 30.18 in Calm   2.0 mph 88 % 0.00 in 0 W/m2
17:50 50.4 °F 46.9 °F 30.18 in South 1.0 mph 4.0 mph 88 % 0.00 in 0 W/m2
17:55 50.4 °F 46.9 °F 30.19 in Calm   2.0 mph 88 % 0.00 in 0 W/m2
18:00 50.5 °F 47.1 °F 30.18 in SW 3.0 mph 6.0 mph 88 % 0.00 in 0 W/m2
18:05 50.5 °F 47.1 °F 30.18 in SW 1.0 mph 5.0 mph 88 % 0.00 in 0 W/m2
18:10 50.5 °F 47.4 °F 30.19 in SW 1.0 mph 5.0 mph 89 % 0.00 in 0 W/m2
18:15 50.5 °F 47.4 °F 30.18 in Calm     89 % 0.00 in 0 W/m2
18:20 50.5 °F 47.4 °F 30.18 in Calm     89 % 0.00 in 0 W/m2
18:25 50.4 °F 47.2 °F 30.18 in Calm   1.0 mph 89 % 0.00 in 0 W/m2
18:30 50.4 °F 47.2 °F 30.18 in Calm   1.0 mph 89 % 0.00 in 0 W/m2
18:35 50.2 °F 47.1 °F 30.18 in SW 2.0 mph 4.0 mph 89 % 0.00 in 0 W/m2
18:40 50.2 °F 47.1 °F 30.18 in Calm   2.0 mph 89 % 0.00 in 0 W/m2
18:45 50.2 °F 47.4 °F 30.18 in SW 1.0 mph 5.0 mph 90 % 0.00 in 0 W/m2
18:50 50.0 °F 46.9 °F 30.18 in SW 1.0 mph 4.0 mph 89 % 0.00 in 0 W/m2
18:55 50.0 °F 47.2 °F 30.18 in Calm   2.0 mph 90 % 0.00 in 0 W/m2
19:00 50.0 °F 47.2 °F 30.18 in SSW 1.0 mph 2.0 mph 90 % 0.00 in 0 W/m2
19:05 50.0 °F 47.2 °F 30.18 in Calm     90 % 0.00 in 0 W/m2
19:10 50.0 °F 47.2 °F 30.18 in Calm   2.0 mph 90 % 0.00 in 0 W/m2
19:16 50.0 °F 47.2 °F 30.18 in SSW 1.0 mph 4.0 mph 90 % 0.00 in 0 W/m2
19:21 50.0 °F 47.2 °F 30.18 in SSW 1.0 mph 4.0 mph 90 % 0.00 in 0 W/m2
19:26 50.0 °F 47.2 °F 30.18 in SSE 1.0 mph 3.0 mph 90 % 0.00 in 0 W/m2
19:31 50.0 °F 47.5 °F 30.18 in South 1.0 mph 4.0 mph 91 % 0.00 in 0 W/m2
19:36 50.0 °F 47.5 °F 30.18 in Calm     91 % 0.00 in 0 W/m2
19:41 50.0 °F 47.5 °F 30.18 in Calm     91 % 0.00 in 0 W/m2
19:46 50.0 °F 47.5 °F 30.18 in Calm     91 % 0.00 in 0 W/m2
19:51 50.0 °F 47.5 °F 30.18 in Calm     91 % 0.00 in 0 W/m2
19:56 50.0 °F 47.5 °F 30.18 in Calm     91 % 0.00 in 0 W/m2
20:01 49.8 °F 47.3 °F 30.18 in Calm     91 % 0.00 in 0 W/m2
20:06 49.8 °F 47.3 °F 30.17 in Calm   2.0 mph 91 % 0.00 in 0 W/m2
20:11 49.8 °F 47.3 °F 30.17 in SSE 1.0 mph 5.0 mph 91 % 0.00 in 0 W/m2
20:16 49.8 °F 47.3 °F 30.17 in Calm   2.0 mph 91 % 0.00 in 0 W/m2
20:21 49.8 °F 47.3 °F 30.17 in Calm   2.0 mph 91 % 0.00 in 0 W/m2
20:26 49.8 °F 47.3 °F 30.17 in SSW 2.0 mph 6.0 mph 91 % 0.00 in 0 W/m2
20:27 49.8 °F 47.3 °F 30.17 in SSW 1.0 mph 4.0 mph 91 % 0.00 in 0 W/m2
20:32 49.8 °F 47.3 °F 30.17 in Calm     91 % 0.00 in 0 W/m2
20:37 49.8 °F 47.3 °F 30.17 in Calm     91 % 0.00 in 0 W/m2
20:42 49.8 °F 47.3 °F 30.17 in Calm   2.0 mph 91 % 0.00 in 0 W/m2
20:48 49.8 °F 47.3 °F 30.17 in SSW 1.0 mph 3.0 mph 91 % 0.00 in 0 W/m2
20:53 49.8 °F 47.3 °F 30.17 in Calm     91 % 0.00 in 0 W/m2
20:58 49.8 °F 47.3 °F 30.17 in Calm     91 % 0.00 in 0 W/m2
21:03 49.8 °F 47.3 °F 30.17 in Calm   2.0 mph 91 % 0.00 in 0 W/m2
21:08 49.8 °F 47.6 °F 30.16 in Calm     92 % 0.00 in 0 W/m2
21:13 49.8 °F 47.6 °F 30.16 in SSW 1.0 mph 4.0 mph 92 % 0.00 in 0 W/m2
21:18 49.8 °F 47.6 °F 30.16 in Calm     92 % 0.00 in 0 W/m2
21:23 49.8 °F 47.6 °F 30.16 in SSW 2.0 mph 4.0 mph 92 % 0.00 in 0 W/m2
21:28 49.6 °F 47.4 °F 30.16 in South 4.0 mph 8.0 mph 92 % 0.00 in 0 W/m2
21:33 49.6 °F 47.4 °F 30.16 in South 5.0 mph 8.0 mph 92 % 0.00 in 0 W/m2
21:38 49.6 °F 47.4 °F 30.16 in SSW 6.0 mph 8.0 mph 92 % 0.00 in 0 W/m2
21:48 49.8 °F 47.6 °F 30.15 in South 7.0 mph 11.0 mph 92 % 0.00 in 0 W/m2
21:53 49.8 °F 47.6 °F 30.15 in South 7.0 mph 9.0 mph 92 % 0.00 in 0 W/m2
21:58 49.8 °F 47.9 °F 30.15 in SSW 5.0 mph 9.0 mph 93 % 0.00 in 0 W/m2
22:03 49.8 °F 47.9 °F 30.15 in SSW 4.0 mph 6.0 mph 93 % 0.00 in 0 W/m2
22:08 49.8 °F 47.6 °F 30.15 in SSW 2.0 mph 6.0 mph 92 % 0.00 in 0 W/m2
22:13 49.8 °F 47.6 °F 30.15 in SSW 2.0 mph 5.0 mph 92 % 0.00 in 0 W/m2
22:18 49.8 °F 47.6 °F 30.15 in SSW 2.0 mph 5.0 mph 92 % 0.00 in 0 W/m2
22:23 49.8 °F 47.6 °F 30.15 in SSW 3.0 mph 7.0 mph 92 % 0.00 in 0 W/m2
22:28 49.6 °F 47.4 °F 30.15 in Calm   2.0 mph 92 % 0.00 in 0 W/m2
22:33 49.6 °F 47.4 °F 30.14 in SSW 4.0 mph 6.0 mph 92 % 0.00 in 0 W/m2
22:38 49.6 °F 47.4 °F 30.14 in Calm     92 % 0.00 in 0 W/m2
22:43 49.5 °F 47.2 °F 30.14 in Calm   2.0 mph 92 % 0.00 in 0 W/m2
22:46 49.5 °F 47.2 °F 30.14 in SSW 2.0 mph 5.0 mph 92 % 0.00 in 0 W/m2
22:51 49.3 °F 47.1 °F 30.14 in Calm   3.0 mph 92 % 0.00 in 0 W/m2
23:01 48.9 °F 46.7 °F 30.14 in SSW 2.0 mph 5.0 mph 92 % 0.00 in 0 W/m2
23:06 48.9 °F 46.7 °F 30.13 in SSW 2.0 mph 4.0 mph 92 % 0.00 in 0 W/m2
23:11 48.7 °F 46.8 °F 30.14 in SSW 4.0 mph 6.0 mph 93 % 0.00 in 0 W/m2
23:16 48.7 °F 46.8 °F 30.14 in South 4.0 mph 7.0 mph 93 % 0.00 in 0 W/m2
23:21 48.7 °F 46.8 °F 30.14 in SSE 5.0 mph 6.0 mph 93 % 0.00 in 0 W/m2
23:26 48.7 °F 46.8 °F 30.13 in SSE 5.0 mph 8.0 mph 93 % 0.00 in 0 W/m2
23:31 48.7 °F 46.8 °F 30.13 in SE 5.0 mph 7.0 mph 93 % 0.00 in 0 W/m2
23:36 48.7 °F 46.8 °F 30.13 in SE 3.0 mph 6.0 mph 93 % 0.00 in 0 W/m2
23:41 48.6 °F 46.6 °F 30.13 in SE 2.0 mph 4.0 mph 93 % 0.00 in 0 W/m2
23:46 48.6 °F 46.6 °F 30.13 in Calm     93 % 0.00 in 0 W/m2
23:51 48.4 °F 46.4 °F 30.13 in Calm   1.0 mph 93 % 0.00 in 0 W/m2
23:56 48.4 °F 46.4 °F 30.12 in Calm   1.0 mph 93 % 0.00 in 0 W/m2
Delerius-Weather
Compliments of Weather Underground - 2.25 mb

Data updates at regular intervals.